sensor_id;sensor_type;location;lat;lon;timestamp;pressure;altitude;pressure_sealevel;temperature;humidity
78888;BME280;68276;49.326;8.690;2024-02-21T00:01:17;101344.19;;;7.80;98.65
78888;BME280;68276;49.326;8.690;2024-02-21T00:03:43;101341.81;;;7.77;98.83
78888;BME280;68276;49.326;8.690;2024-02-21T00:06:08;101336.44;;;7.77;98.99
78888;BME280;68276;49.326;8.690;2024-02-21T00:08:34;101338.28;;;7.77;99.23
78888;BME280;68276;49.326;8.690;2024-02-21T00:10:59;101333.88;;;7.76;99.38
78888;BME280;68276;49.326;8.690;2024-02-21T00:13:24;101326.00;;;7.74;99.25
78888;BME280;68276;49.326;8.690;2024-02-21T00:15:50;101321.38;;;7.76;99.10
78888;BME280;68276;49.326;8.690;2024-02-21T00:18:15;101308.28;;;7.73;99.36
78888;BME280;68276;49.326;8.690;2024-02-21T00:20:41;101313.50;;;7.75;99.40
78888;BME280;68276;49.326;8.690;2024-02-21T00:23:06;101312.63;;;7.74;99.58
78888;BME280;68276;49.326;8.690;2024-02-21T00:25:31;101319.84;;;7.74;99.86
78888;BME280;68276;49.326;8.690;2024-02-21T00:27:57;101321.81;;;7.72;100.00
78888;BME280;68276;49.326;8.690;2024-02-21T00:30:22;101315.63;;;7.71;100.00
78888;BME280;68276;49.326;8.690;2024-02-21T00:32:47;101314.75;;;7.71;100.00
78888;BME280;68276;49.326;8.690;2024-02-21T00:35:14;101312.38;;;7.77;100.00
78888;BME280;68276;49.326;8.690;2024-02-21T00:37:39;101309.72;;;7.77;99.37
78888;BME280;68276;49.326;8.690;2024-02-21T00:40:05;101305.88;;;7.80;98.96
78888;BME280;68276;49.326;8.690;2024-02-21T00:42:31;101299.56;;;7.71;99.54
78888;BME280;68276;49.326;8.690;2024-02-21T00:44:56;101298.00;;;7.78;99.37
78888;BME280;68276;49.326;8.690;2024-02-21T00:47:21;101292.34;;;7.81;99.35
78888;BME280;68276;49.326;8.690;2024-02-21T00:49:47;101287.88;;;7.82;99.29
78888;BME280;68276;49.326;8.690;2024-02-21T00:52:12;101285.03;;;7.83;100.00
78888;BME280;68276;49.326;8.690;2024-02-21T00:54:38;101277.16;;;7.82;100.00
78888;BME280;68276;49.326;8.690;2024-02-21T00:57:03;101270.09;;;7.81;100.00
78888;BME280;68276;49.326;8.690;2024-02-21T00:59:29;101273.63;;;7.81;100.00
78888;BME280;68276;49.326;8.690;2024-02-21T01:01:54;101261.97;;;7.82;100.00
78888;BME280;68276;49.326;8.690;2024-02-21T01:04:19;101250.72;;;7.79;100.00
78888;BME280;68276;49.326;8.690;2024-02-21T01:06:45;101253.63;;;7.85;100.00
78888;BME280;68276;49.326;8.690;2024-02-21T01:09:13;101249.56;;;7.81;100.00
78888;BME280;68276;49.326;8.690;2024-02-21T01:11:39;101253.25;;;7.80;100.00
78888;BME280;68276;49.326;8.690;2024-02-21T01:14:04;101248.19;;;7.77;100.00
78888;BME280;68276;49.326;8.690;2024-02-21T01:16:30;101241.97;;;7.77;100.00
78888;BME280;68276;49.326;8.690;2024-02-21T01:18:55;101229.88;;;7.82;100.00
78888;BME280;68276;49.326;8.690;2024-02-21T01:21:20;101229.31;;;7.79;100.00
78888;BME280;68276;49.326;8.690;2024-02-21T01:23:46;101222.09;;;7.79;100.00
78888;BME280;68276;49.326;8.690;2024-02-21T01:26:11;101223.41;;;7.75;100.00
78888;BME280;68276;49.326;8.690;2024-02-21T01:28:39;101220.88;;;7.74;100.00
78888;BME280;68276;49.326;8.690;2024-02-21T01:31:05;101219.03;;;7.74;100.00
78888;BME280;68276;49.326;8.690;2024-02-21T01:33:30;101232.00;;;7.69;100.00
78888;BME280;68276;49.326;8.690;2024-02-21T01:36:01;101241.44;;;7.73;100.00
78888;BME280;68276;49.326;8.690;2024-02-21T01:38:27;101251.44;;;7.71;100.00
78888;BME280;68276;49.326;8.690;2024-02-21T01:40:53;101247.91;;;7.71;100.00
78888;BME280;68276;49.326;8.690;2024-02-21T01:43:19;101233.81;;;7.69;100.00
78888;BME280;68276;49.326;8.690;2024-02-21T01:45:52;101240.16;;;7.68;100.00
78888;BME280;68276;49.326;8.690;2024-02-21T01:48:18;101241.19;;;7.67;100.00
78888;BME280;68276;49.326;8.690;2024-02-21T01:50:45;101224.03;;;7.60;100.00
78888;BME280;68276;49.326;8.690;2024-02-21T01:53:13;101220.94;;;7.55;100.00
78888;BME280;68276;49.326;8.690;2024-02-21T01:55:45;101217.56;;;7.53;100.00
78888;BME280;68276;49.326;8.690;2024-02-21T01:58:14;101223.72;;;7.53;100.00
78888;BME280;68276;49.326;8.690;2024-02-21T02:00:43;101229.06;;;7.53;100.00
78888;BME280;68276;49.326;8.690;2024-02-21T02:03:10;101223.72;;;7.53;100.00
78888;BME280;68276;49.326;8.690;2024-02-21T02:05:49;101218.25;;;7.55;100.00
78888;BME280;68276;49.326;8.690;2024-02-21T02:08:15;101219.38;;;7.52;100.00
78888;BME280;68276;49.326;8.690;2024-02-21T02:10:41;101210.66;;;7.50;100.00
78888;BME280;68276;49.326;8.690;2024-02-21T02:13:07;101212.63;;;7.48;100.00
78888;BME280;68276;49.326;8.690;2024-02-21T02:15:43;101221.78;;;7.46;100.00
78888;BME280;68276;49.326;8.690;2024-02-21T02:18:10;101216.31;;;7.47;100.00
78888;BME280;68276;49.326;8.690;2024-02-21T02:20:36;101211.97;;;7.46;100.00
78888;BME280;68276;49.326;8.690;2024-02-21T02:23:08;101204.06;;;7.45;100.00
78888;BME280;68276;49.326;8.690;2024-02-21T02:25:38;101204.06;;;7.45;100.00
78888;BME280;68276;49.326;8.690;2024-02-21T02:28:05;101209.97;;;7.48;100.00
78888;BME280;68276;49.326;8.690;2024-02-21T02:30:35;101197.19;;;7.42;100.00
78888;BME280;68276;49.326;8.690;2024-02-21T02:33:04;101188.59;;;7.39;100.00
78888;BME280;68276;49.326;8.690;2024-02-21T02:35:30;101175.94;;;7.41;100.00
78888;BME280;68276;49.326;8.690;2024-02-21T02:37:55;101161.19;;;7.37;100.00
78888;BME280;68276;49.326;8.690;2024-02-21T02:40:21;101171.41;;;7.41;100.00
78888;BME280;68276;49.326;8.690;2024-02-21T02:42:46;101162.72;;;7.39;100.00
78888;BME280;68276;49.326;8.690;2024-02-21T02:45:14;101154.00;;;7.37;100.00
78888;BME280;68276;49.326;8.690;2024-02-21T02:47:40;101153.84;;;7.39;100.00
78888;BME280;68276;49.326;8.690;2024-02-21T02:50:06;101142.47;;;7.37;100.00
78888;BME280;68276;49.326;8.690;2024-02-21T02:52:31;101145.84;;;7.39;100.00
78888;BME280;68276;49.326;8.690;2024-02-21T02:54:57;101130.34;;;7.42;100.00
78888;BME280;68276;49.326;8.690;2024-02-21T02:57:22;101139.34;;;7.41;100.00
78888;BME280;68276;49.326;8.690;2024-02-21T02:59:51;101129.50;;;7.42;100.00
78888;BME280;68276;49.326;8.690;2024-02-21T03:02:16;101150.03;;;7.41;100.00
78888;BME280;68276;49.326;8.690;2024-02-21T03:04:45;101148.06;;;7.43;100.00
78888;BME280;68276;49.326;8.690;2024-02-21T03:07:11;101153.41;;;7.43;100.00
78888;BME280;68276;49.326;8.690;2024-02-21T03:09:37;101143.88;;;7.41;100.00
78888;BME280;68276;49.326;8.690;2024-02-21T03:12:03;101128.66;;;7.41;100.00
78888;BME280;68276;49.326;8.690;2024-02-21T03:14:29;101115.97;;;7.43;100.00
78888;BME280;68276;49.326;8.690;2024-02-21T03:16:55;101112.19;;;7.46;100.00
78888;BME280;68276;49.326;8.690;2024-02-21T03:19:20;101119.34;;;7.45;100.00
78888;BME280;68276;49.326;8.690;2024-02-21T03:21:45;101114.63;;;7.39;100.00
78888;BME280;68276;49.326;8.690;2024-02-21T03:24:11;101108.13;;;7.42;100.00
78888;BME280;68276;49.326;8.690;2024-02-21T03:26:36;101099.13;;;7.43;100.00
78888;BME280;68276;49.326;8.690;2024-02-21T03:29:03;101090.81;;;7.36;100.00
78888;BME280;68276;49.326;8.690;2024-02-21T03:31:28;101100.16;;;7.32;100.00
78888;BME280;68276;49.326;8.690;2024-02-21T03:33:54;101101.13;;;7.31;100.00
78888;BME280;68276;49.326;8.690;2024-02-21T03:36:20;101096.91;;;7.29;100.00
78888;BME280;68276;49.326;8.690;2024-02-21T03:38:45;101077.66;;;7.25;100.00
78888;BME280;68276;49.326;8.690;2024-02-21T03:41:10;101080.03;;;7.28;100.00
78888;BME280;68276;49.326;8.690;2024-02-21T03:43:37;101075.69;;;7.27;100.00
78888;BME280;68276;49.326;8.690;2024-02-21T03:46:03;101071.47;;;7.25;100.00
78888;BME280;68276;49.326;8.690;2024-02-21T03:48:28;101069.09;;;7.22;100.00
78888;BME280;68276;49.326;8.690;2024-02-21T03:50:54;101063.75;;;7.22;100.00
78888;BME280;68276;49.326;8.690;2024-02-21T03:53:19;101070.22;;;7.19;100.00
78888;BME280;68276;49.326;8.690;2024-02-21T03:55:45;101076.72;;;7.17;100.00
78888;BME280;68276;49.326;8.690;2024-02-21T03:58:10;101072.47;;;7.14;100.00
78888;BME280;68276;49.326;8.690;2024-02-21T04:00:35;101072.47;;;7.14;100.00
78888;BME280;68276;49.326;8.690;2024-02-21T04:03:01;101072.78;;;7.11;100.00
78888;BME280;68276;49.326;8.690;2024-02-21T04:05:26;101083.16;;;7.14;100.00
78888;BME280;68276;49.326;8.690;2024-02-21T04:07:53;101086.84;;;7.13;100.00
78888;BME280;68276;49.326;8.690;2024-02-21T04:10:18;101086.44;;;7.08;100.00
78888;BME280;68276;49.326;8.690;2024-02-21T04:12:44;101101.75;;;7.06;100.00
78888;BME280;68276;49.326;8.690;2024-02-21T04:15:09;101101.34;;;7.01;100.00
78888;BME280;68276;49.326;8.690;2024-02-21T04:17:36;101102.06;;;6.93;100.00
78888;BME280;68276;49.326;8.690;2024-02-21T04:20:06;101103.88;;;6.93;100.00
78888;BME280;68276;49.326;8.690;2024-02-21T04:22:33;101107.28;;;6.85;100.00
78888;BME280;68276;49.326;8.690;2024-02-21T04:25:02;101106.31;;;6.77;100.00
78888;BME280;68276;49.326;8.690;2024-02-21T04:27:29;101105.63;;;6.75;100.00
78888;BME280;68276;49.326;8.690;2024-02-21T04:29:54;101091.16;;;6.68;100.00
78888;BME280;68276;49.326;8.690;2024-02-21T04:32:20;101088.72;;;6.65;100.00
78888;BME280;68276;49.326;8.690;2024-02-21T04:34:45;101088.47;;;6.58;100.00
78888;BME280;68276;49.326;8.690;2024-02-21T04:37:11;101079.75;;;6.66;100.00
78888;BME280;68276;49.326;8.690;2024-02-21T04:39:36;101081.88;;;6.62;100.00
78888;BME280;68276;49.326;8.690;2024-02-21T04:42:03;101074.84;;;6.61;100.00
78888;BME280;68276;49.326;8.690;2024-02-21T04:44:28;101078.50;;;6.60;100.00
78888;BME280;68276;49.326;8.690;2024-02-21T04:46:54;101070.06;;;6.55;100.00
78888;BME280;68276;49.326;8.690;2024-02-21T04:49:19;101057.72;;;6.54;100.00
78888;BME280;68276;49.326;8.690;2024-02-21T04:51:44;101064.16;;;6.52;100.00
78888;BME280;68276;49.326;8.690;2024-02-21T04:54:10;101049.69;;;6.45;100.00
78888;BME280;68276;49.326;8.690;2024-02-21T04:56:35;101056.59;;;6.47;100.00
78888;BME280;68276;49.326;8.690;2024-02-21T04:59:00;101046.06;;;6.46;100.00
78888;BME280;68276;49.326;8.690;2024-02-21T05:01:26;101043.66;;;6.43;100.00
78888;BME280;68276;49.326;8.690;2024-02-21T05:03:53;101045.78;;;6.39;100.00
78888;BME280;68276;49.326;8.690;2024-02-21T05:06:18;101028.78;;;6.40;100.00
78888;BME280;68276;49.326;8.690;2024-02-21T05:08:44;101028.66;;;6.42;100.00
78888;BME280;68276;49.326;8.690;2024-02-21T05:11:09;101020.63;;;6.42;100.00
78888;BME280;68276;49.326;8.690;2024-02-21T05:13:35;101022.31;;;6.43;100.00
78888;BME280;68276;49.326;8.690;2024-02-21T05:16:00;101016.28;;;6.41;100.00
78888;BME280;68276;49.326;8.690;2024-02-21T05:18:27;101012.94;;;6.39;100.00
78888;BME280;68276;49.326;8.690;2024-02-21T05:20:53;101017.69;;;6.35;100.00
78888;BME280;68276;49.326;8.690;2024-02-21T05:23:19;101017.16;;;6.32;100.00
78888;BME280;68276;49.326;8.690;2024-02-21T05:25:44;101023.44;;;6.31;100.00
78888;BME280;68276;49.326;8.690;2024-02-21T05:28:10;101015.72;;;6.28;100.00
78888;BME280;68276;49.326;8.690;2024-02-21T05:30:35;101028.38;;;6.26;100.00
78888;BME280;68276;49.326;8.690;2024-02-21T05:33:07;101014.91;;;6.18;100.00
78888;BME280;68276;49.326;8.690;2024-02-21T05:35:32;101019.53;;;6.16;100.00
78888;BME280;68276;49.326;8.690;2024-02-21T05:37:58;101027.09;;;6.11;100.00
78888;BME280;68276;49.326;8.690;2024-02-21T05:40:24;101023.88;;;6.07;100.00
78888;BME280;68276;49.326;8.690;2024-02-21T05:42:50;101020.50;;;6.05;100.00
78888;BME280;68276;49.326;8.690;2024-02-21T05:45:17;101007.72;;;5.99;100.00
78888;BME280;68276;49.326;8.690;2024-02-21T05:47:42;101017.97;;;5.94;100.00
78888;BME280;68276;49.326;8.690;2024-02-21T05:50:09;101013.34;;;5.87;100.00
78888;BME280;68276;49.326;8.690;2024-02-21T05:52:34;101002.94;;;5.83;100.00
78888;BME280;68276;49.326;8.690;2024-02-21T05:54:59;100998.84;;;5.79;100.00
78888;BME280;68276;49.326;8.690;2024-02-21T05:57:25;100999.25;;;5.75;100.00
78888;BME280;68276;49.326;8.690;2024-02-21T05:59:50;101001.47;;;5.70;100.00
78888;BME280;68276;49.326;8.690;2024-02-21T06:02:16;100994.88;;;5.64;100.00
78888;BME280;68276;49.326;8.690;2024-02-21T06:04:41;101008.06;;;5.56;100.00
78888;BME280;68276;49.326;8.690;2024-02-21T06:07:08;101005.66;;;5.53;100.00
78888;BME280;68276;49.326;8.690;2024-02-21T06:09:34;101001.31;;;5.52;100.00
78888;BME280;68276;49.326;8.690;2024-02-21T06:11:59;100996.81;;;5.53;100.00
78888;BME280;68276;49.326;8.690;2024-02-21T06:14:25;100986.31;;;5.51;100.00
78888;BME280;68276;49.326;8.690;2024-02-21T06:16:50;100984.31;;;5.44;100.00
78888;BME280;68276;49.326;8.690;2024-02-21T06:19:16;100979.25;;;5.41;100.00
78888;BME280;68276;49.326;8.690;2024-02-21T06:21:41;100980.13;;;5.41;100.00
78888;BME280;68276;49.326;8.690;2024-02-21T06:24:06;100976.47;;;5.42;100.00
78888;BME280;68276;49.326;8.690;2024-02-21T06:26:32;100977.03;;;5.46;100.00
78888;BME280;68276;49.326;8.690;2024-02-21T06:28:57;100981.41;;;5.47;100.00
78888;BME280;68276;49.326;8.690;2024-02-21T06:31:24;100979.31;;;5.50;100.00
78888;BME280;68276;49.326;8.690;2024-02-21T06:33:50;100982.41;;;5.55;100.00
78888;BME280;68276;49.326;8.690;2024-02-21T06:36:15;100986.44;;;5.59;100.00
78888;BME280;68276;49.326;8.690;2024-02-21T06:38:41;100980.44;;;5.57;100.00
78888;BME280;68276;49.326;8.690;2024-02-21T06:41:06;100980.84;;;5.53;100.00
78888;BME280;68276;49.326;8.690;2024-02-21T06:43:39;100974.13;;;5.58;100.00
78888;BME280;68276;49.326;8.690;2024-02-21T06:46:04;100970.47;;;5.59;100.00
78888;BME280;68276;49.326;8.690;2024-02-21T06:48:30;100971.44;;;5.68;100.00
78888;BME280;68276;49.326;8.690;2024-02-21T06:50:55;100977.09;;;5.74;100.00
78888;BME280;68276;49.326;8.690;2024-02-21T06:53:20;100980.78;;;5.93;100.00
78888;BME280;68276;49.326;8.690;2024-02-21T06:55:46;100972.63;;;6.04;100.00
78888;BME280;68276;49.326;8.690;2024-02-21T06:58:11;100976.72;;;6.08;100.00
78888;BME280;68276;49.326;8.690;2024-02-21T07:00:38;100980.47;;;6.15;100.00
78888;BME280;68276;49.326;8.690;2024-02-21T07:03:03;100982.88;;;6.18;100.00
78888;BME280;68276;49.326;8.690;2024-02-21T07:05:29;100977.41;;;6.19;100.00
78888;BME280;68276;49.326;8.690;2024-02-21T07:07:54;100977.66;;;6.26;100.00
78888;BME280;68276;49.326;8.690;2024-02-21T07:10:20;100981.03;;;6.28;100.00
78888;BME280;68276;49.326;8.690;2024-02-21T07:12:45;100981.03;;;6.28;100.00
78888;BME280;68276;49.326;8.690;2024-02-21T07:15:10;100973.44;;;6.33;100.00
78888;BME280;68276;49.326;8.690;2024-02-21T07:17:36;100985.09;;;6.41;100.00
78888;BME280;68276;49.326;8.690;2024-02-21T07:20:01;100977.34;;;6.48;100.00
78888;BME280;68276;49.326;8.690;2024-02-21T07:22:27;100970.75;;;6.52;100.00
78888;BME280;68276;49.326;8.690;2024-02-21T07:24:52;100968.63;;;6.55;100.00
78888;BME280;68276;49.326;8.690;2024-02-21T07:27:18;100967.06;;;6.62;100.00
78888;BME280;68276;49.326;8.690;2024-02-21T07:29:43;100965.25;;;6.63;100.00
78888;BME280;68276;49.326;8.690;2024-02-21T07:32:12;100961.44;;;6.65;100.00
78888;BME280;68276;49.326;8.690;2024-02-21T07:34:38;100969.59;;;6.73;100.00
78888;BME280;68276;49.326;8.690;2024-02-21T07:37:03;100971.81;;;6.78;100.00
78888;BME280;68276;49.326;8.690;2024-02-21T07:39:28;100959.84;;;6.82;100.00
78888;BME280;68276;49.326;8.690;2024-02-21T07:41:54;100960.53;;;6.84;100.00
78888;BME280;68276;49.326;8.690;2024-02-21T07:44:19;100959.25;;;6.88;100.00
78888;BME280;68276;49.326;8.690;2024-02-21T07:46:44;100968.50;;;6.93;99.39
78888;BME280;68276;49.326;8.690;2024-02-21T07:49:10;100966.41;;;6.97;99.27
78888;BME280;68276;49.326;8.690;2024-02-21T07:51:35;100971.44;;;7.00;99.27
78888;BME280;68276;49.326;8.690;2024-02-21T07:54:01;100961.69;;;7.09;97.74
78888;BME280;68276;49.326;8.690;2024-02-21T07:56:27;100965.16;;;7.19;97.92
78888;BME280;68276;49.326;8.690;2024-02-21T07:58:53;100956.88;;;7.22;96.37
78888;BME280;68276;49.326;8.690;2024-02-21T08:01:21;100958.22;;;7.26;96.47
78888;BME280;68276;49.326;8.690;2024-02-21T08:03:46;100951.44;;;7.31;96.35
78888;BME280;68276;49.326;8.690;2024-02-21T08:06:13;100945.41;;;7.29;95.79
78888;BME280;68276;49.326;8.690;2024-02-21T08:08:39;100942.84;;;7.37;94.90
78888;BME280;68276;49.326;8.690;2024-02-21T08:11:04;100946.59;;;7.44;94.37
78888;BME280;68276;49.326;8.690;2024-02-21T08:13:30;100943.94;;;7.44;93.57
78888;BME280;68276;49.326;8.690;2024-02-21T08:15:55;100940.94;;;7.47;94.82
78888;BME280;68276;49.326;8.690;2024-02-21T08:18:22;100927.13;;;7.52;93.99
78888;BME280;68276;49.326;8.690;2024-02-21T08:20:47;100936.44;;;7.65;93.69
78888;BME280;68276;49.326;8.690;2024-02-21T08:23:15;100934.72;;;7.56;93.99
78888;BME280;68276;49.326;8.690;2024-02-21T08:25:41;100937.84;;;7.69;94.16
78888;BME280;68276;49.326;8.690;2024-02-21T08:28:06;100937.25;;;7.75;92.61
78888;BME280;68276;49.326;8.690;2024-02-21T08:30:33;100937.44;;;7.64;93.02
78888;BME280;68276;49.326;8.690;2024-02-21T08:32:59;100931.91;;;7.75;91.22
78888;BME280;68276;49.326;8.690;2024-02-21T08:35:24;100926.59;;;7.83;90.90
78888;BME280;68276;49.326;8.690;2024-02-21T08:37:49;100913.97;;;7.93;90.75
78888;BME280;68276;49.326;8.690;2024-02-21T08:40:15;100912.75;;;7.88;89.08
78888;BME280;68276;49.326;8.690;2024-02-21T08:42:44;100907.94;;;7.91;90.69
78888;BME280;68276;49.326;8.690;2024-02-21T08:45:10;100903.75;;;7.89;89.68
78888;BME280;68276;49.326;8.690;2024-02-21T08:47:35;100901.78;;;7.91;88.16
78888;BME280;68276;49.326;8.690;2024-02-21T08:50:04;100902.47;;;7.93;88.74
78888;BME280;68276;49.326;8.690;2024-02-21T08:52:31;100899.78;;;7.93;89.87
78888;BME280;68276;49.326;8.690;2024-02-21T08:54:56;100901.78;;;7.91;89.78
78888;BME280;68276;49.326;8.690;2024-02-21T08:57:21;100900.00;;;7.99;89.32
78888;BME280;68276;49.326;8.690;2024-02-21T08:59:47;100901.06;;;8.06;89.27
78888;BME280;68276;49.326;8.690;2024-02-21T09:02:13;100896.25;;;8.10;89.09
78888;BME280;68276;49.326;8.690;2024-02-21T09:04:38;100899.75;;;8.10;88.32
78888;BME280;68276;49.326;8.690;2024-02-21T09:07:04;100894.47;;;8.19;88.34
78888;BME280;68276;49.326;8.690;2024-02-21T09:09:29;100893.63;;;8.18;87.00
78888;BME280;68276;49.326;8.690;2024-02-21T09:11:54;100895.28;;;8.19;87.12
78888;BME280;68276;49.326;8.690;2024-02-21T09:14:20;100883.75;;;8.19;88.44
78888;BME280;68276;49.326;8.690;2024-02-21T09:16:45;100882.44;;;8.23;88.08
78888;BME280;68276;49.326;8.690;2024-02-21T09:19:10;100889.88;;;8.29;87.53
78888;BME280;68276;49.326;8.690;2024-02-21T09:21:39;100882.53;;;8.31;87.53
78888;BME280;68276;49.326;8.690;2024-02-21T09:24:06;100873.69;;;8.38;86.40
78888;BME280;68276;49.326;8.690;2024-02-21T09:26:32;100868.28;;;8.56;86.31
78888;BME280;68276;49.326;8.690;2024-02-21T09:28:57;100861.66;;;8.68;83.78
78888;BME280;68276;49.326;8.690;2024-02-21T09:31:23;100862.00;;;8.73;84.05
78888;BME280;68276;49.326;8.690;2024-02-21T09:33:48;100862.38;;;8.78;83.88
78888;BME280;68276;49.326;8.690;2024-02-21T09:36:14;100862.59;;;8.92;83.01
78888;BME280;68276;49.326;8.690;2024-02-21T09:38:40;100860.78;;;9.01;83.54
78888;BME280;68276;49.326;8.690;2024-02-21T09:43:34;100851.31;;;9.31;81.36
78888;BME280;68276;49.326;8.690;2024-02-21T09:46:00;100844.81;;;9.33;81.27
78888;BME280;68276;49.326;8.690;2024-02-21T09:50:58;100838.75;;;9.39;80.72
78888;BME280;68276;49.326;8.690;2024-02-21T09:53:24;100839.47;;;9.57;79.29
78888;BME280;68276;49.326;8.690;2024-02-21T09:55:50;100843.31;;;9.71;79.08
78888;BME280;68276;49.326;8.690;2024-02-21T09:58:16;100829.91;;;9.79;77.32
78888;BME280;68276;49.326;8.690;2024-02-21T10:00:41;100821.03;;;9.78;77.56
78888;BME280;68276;49.326;8.690;2024-02-21T10:03:07;100819.19;;;9.71;77.54
78888;BME280;68276;49.326;8.690;2024-02-21T10:05:36;100825.06;;;9.74;76.11
78888;BME280;68276;49.326;8.690;2024-02-21T10:08:02;100815.81;;;9.77;76.29
78888;BME280;68276;49.326;8.690;2024-02-21T10:10:27;100812.59;;;9.97;75.88
78888;BME280;68276;49.326;8.690;2024-02-21T10:12:55;100821.00;;;10.02;75.40
78888;BME280;68276;49.326;8.690;2024-02-21T10:15:22;100808.91;;;10.22;74.73
78888;BME280;68276;49.326;8.690;2024-02-21T10:18:00;100807.34;;;10.36;75.16
78888;BME280;68276;49.326;8.690;2024-02-21T10:20:27;100799.03;;;10.23;74.03
78888;BME280;68276;49.326;8.690;2024-02-21T10:23:02;100803.19;;;10.33;73.43
78888;BME280;68276;49.326;8.690;2024-02-21T10:25:28;100803.81;;;10.44;73.79
78888;BME280;68276;49.326;8.690;2024-02-21T10:27:57;100804.31;;;10.47;73.03
78888;BME280;68276;49.326;8.690;2024-02-21T10:30:22;100792.44;;;10.72;72.49
78888;BME280;68276;49.326;8.690;2024-02-21T10:32:51;100790.03;;;10.85;70.95
78888;BME280;68276;49.326;8.690;2024-02-21T10:35:33;100791.78;;;10.70;70.86
78888;BME280;68276;49.326;8.690;2024-02-21T10:37:59;100789.44;;;10.28;70.71
78888;BME280;68276;49.326;8.690;2024-02-21T10:40:29;100788.56;;;10.44;70.60
78888;BME280;68276;49.326;8.690;2024-02-21T10:43:00;100783.00;;;10.37;69.98
78888;BME280;68276;49.326;8.690;2024-02-21T10:45:34;100775.44;;;10.49;70.43
78888;BME280;68276;49.326;8.690;2024-02-21T10:48:11;100774.16;;;10.68;69.03
78888;BME280;68276;49.326;8.690;2024-02-21T10:50:56;100765.00;;;10.85;68.85
78888;BME280;68276;49.326;8.690;2024-02-21T10:56:30;100742.97;;;10.89;69.04
78888;BME280;68276;49.326;8.690;2024-02-21T10:59:04;100746.19;;;10.85;68.59
78888;BME280;68276;49.326;8.690;2024-02-21T11:01:30;100739.50;;;11.03;68.64
78888;BME280;68276;49.326;8.690;2024-02-21T11:04:03;100734.13;;;10.81;67.85
78888;BME280;68276;49.326;8.690;2024-02-21T11:06:29;100726.28;;;10.71;69.14
78888;BME280;68276;49.326;8.690;2024-02-21T11:09:02;100725.34;;;10.87;68.84
78888;BME280;68276;49.326;8.690;2024-02-21T11:11:28;100720.38;;;11.06;68.44
78888;BME280;68276;49.326;8.690;2024-02-21T11:14:07;100713.66;;;11.02;68.90
78888;BME280;68276;49.326;8.690;2024-02-21T11:16:39;100713.06;;;11.15;68.24
78888;BME280;68276;49.326;8.690;2024-02-21T11:19:21;100707.81;;;10.99;68.84
78888;BME280;68276;49.326;8.690;2024-02-21T11:21:47;100700.75;;;10.98;68.68
78888;BME280;68276;49.326;8.690;2024-02-21T11:24:34;100696.56;;;11.18;67.98
78888;BME280;68276;49.326;8.690;2024-02-21T11:27:11;100693.69;;;11.19;67.95
78888;BME280;68276;49.326;8.690;2024-02-21T11:29:42;100691.56;;;11.15;67.39
78888;BME280;68276;49.326;8.690;2024-02-21T11:32:14;100690.41;;;11.32;67.42
78888;BME280;68276;49.326;8.690;2024-02-21T11:34:40;100680.44;;;11.18;67.60
78888;BME280;68276;49.326;8.690;2024-02-21T11:37:16;100674.97;;;11.26;66.46
78888;BME280;68276;49.326;8.690;2024-02-21T11:39:41;100672.53;;;11.39;66.26
78888;BME280;68276;49.326;8.690;2024-02-21T11:42:08;100670.84;;;11.38;66.58
78888;BME280;68276;49.326;8.690;2024-02-21T11:44:36;100652.44;;;11.64;66.18
78888;BME280;68276;49.326;8.690;2024-02-21T11:47:06;100658.81;;;11.63;65.74
78888;BME280;68276;49.326;8.690;2024-02-21T11:49:45;100643.22;;;11.44;66.02
78888;BME280;68276;49.326;8.690;2024-02-21T11:52:11;100632.84;;;11.41;65.42
78888;BME280;68276;49.326;8.690;2024-02-21T11:54:36;100628.56;;;11.61;64.48
78888;BME280;68276;49.326;8.690;2024-02-21T11:57:02;100630.41;;;11.61;64.73
78888;BME280;68276;49.326;8.690;2024-02-21T11:59:32;100626.25;;;11.58;63.46
78888;BME280;68276;49.326;8.690;2024-02-21T12:02:01;100620.84;;;11.43;63.89
78888;BME280;68276;49.326;8.690;2024-02-21T12:04:30;100609.25;;;11.43;63.96
78888;BME280;68276;49.326;8.690;2024-02-21T12:06:58;100616.69;;;11.55;64.45
78888;BME280;68276;49.326;8.690;2024-02-21T12:09:24;100611.97;;;11.57;63.59
78888;BME280;68276;49.326;8.690;2024-02-21T12:11:57;100602.47;;;11.47;64.66
78888;BME280;68276;49.326;8.690;2024-02-21T12:14:24;100604.16;;;11.63;64.16
78888;BME280;68276;49.326;8.690;2024-02-21T12:16:50;100592.09;;;11.58;64.63
78888;BME280;68276;49.326;8.690;2024-02-21T12:19:15;100591.94;;;11.60;65.25
78888;BME280;68276;49.326;8.690;2024-02-21T12:21:42;100584.78;;;11.67;64.62
78888;BME280;68276;49.326;8.690;2024-02-21T12:26:51;100572.50;;;11.50;65.02
78888;BME280;68276;49.326;8.690;2024-02-21T12:29:20;100563.91;;;11.54;65.05
78888;BME280;68276;49.326;8.690;2024-02-21T12:31:47;100557.22;;;11.80;64.64
78888;BME280;68276;49.326;8.690;2024-02-21T12:34:12;100551.88;;;11.65;64.06
78888;BME280;68276;49.326;8.690;2024-02-21T12:36:42;100549.19;;;11.65;64.23
78888;BME280;68276;49.326;8.690;2024-02-21T12:39:08;100539.56;;;11.92;63.52
78888;BME280;68276;49.326;8.690;2024-02-21T12:41:35;100534.56;;;11.89;63.26
78888;BME280;68276;49.326;8.690;2024-02-21T12:44:12;100525.56;;;11.38;65.02
78888;BME280;68276;49.326;8.690;2024-02-21T12:46:38;100527.97;;;11.62;64.18
78888;BME280;68276;49.326;8.690;2024-02-21T12:49:05;100518.91;;;11.48;64.56
78888;BME280;68276;49.326;8.690;2024-02-21T12:51:32;100519.09;;;11.76;63.98
78888;BME280;68276;49.326;8.690;2024-02-21T12:53:58;100504.91;;;11.53;64.69
78888;BME280;68276;49.326;8.690;2024-02-21T12:56:24;100501.28;;;11.75;64.58
78888;BME280;68276;49.326;8.690;2024-02-21T12:58:51;100499.25;;;11.77;63.68
78888;BME280;68276;49.326;8.690;2024-02-21T13:01:16;100485.41;;;11.80;63.49